createdAt,value
2024-03-26T00:00:48.120Z,93224.00
2024-03-26T00:01:48.179Z,93225.00
2024-03-26T00:02:48.234Z,93222.00
2024-03-26T00:03:48.295Z,93225.00
2024-03-26T00:04:48.334Z,93225.00
2024-03-26T00:05:48.395Z,93225.00
2024-03-26T00:06:48.469Z,93224.00
2024-03-26T00:07:48.536Z,93223.00
2024-03-26T00:08:48.601Z,93221.00
2024-03-26T00:09:48.661Z,93220.00
2024-03-26T00:10:48.732Z,93220.00
2024-03-26T00:11:48.768Z,93222.00
2024-03-26T00:12:48.828Z,93223.00
2024-03-26T00:13:48.899Z,93224.00
2024-03-26T00:14:48.946Z,93226.00
2024-03-26T00:15:49.023Z,93228.00
2024-03-26T00:16:49.070Z,93229.00
2024-03-26T00:17:49.134Z,93230.00
2024-03-26T00:18:49.212Z,93229.00
2024-03-26T00:19:49.264Z,93227.00
2024-03-26T00:20:49.321Z,93228.00
2024-03-26T00:21:49.408Z,93228.00
2024-03-26T00:22:49.448Z,93226.00
2024-03-26T00:23:49.512Z,93227.00
2024-03-26T00:24:49.567Z,93228.00
2024-03-26T00:25:49.654Z,93226.00
2024-03-26T00:26:49.689Z,93227.00
2024-03-26T00:27:49.755Z,93225.00
2024-03-26T00:28:49.813Z,93226.00
2024-03-26T00:29:49.860Z,93227.00
2024-03-26T00:30:49.938Z,93226.00
2024-03-26T00:31:49.985Z,93225.00
2024-03-26T00:32:50.072Z,93225.00
2024-03-26T00:33:50.114Z,93226.00
2024-03-26T00:34:50.178Z,93225.00
2024-03-26T00:35:50.264Z,93225.00
2024-03-26T00:36:50.309Z,93228.00
2024-03-26T00:37:50.338Z,93225.00
2024-03-26T00:38:50.397Z,93226.00
2024-03-26T00:39:50.459Z,93225.00
2024-03-26T00:40:50.524Z,93224.00
2024-03-26T00:41:50.587Z,93223.00
2024-03-26T00:42:50.651Z,93223.00
2024-03-26T00:43:50.723Z,93223.00
2024-03-26T00:44:50.776Z,93224.00
2024-03-26T00:45:50.840Z,93226.00
2024-03-26T00:46:50.893Z,93225.00
2024-03-26T00:47:50.950Z,93225.00
2024-03-26T00:48:51.007Z,93223.00
2024-03-26T00:49:51.079Z,93220.00
2024-03-26T00:50:51.128Z,93220.00
2024-03-26T00:51:51.179Z,93218.00
2024-03-26T00:52:51.246Z,93219.00
2024-03-26T00:53:51.263Z,93216.00
2024-03-26T00:54:51.328Z,93216.00
2024-03-26T00:55:51.373Z,93216.00
2024-03-26T00:56:51.423Z,93211.00
2024-03-26T00:57:51.475Z,93208.00
2024-03-26T00:58:51.562Z,93205.00
2024-03-26T00:59:51.588Z,93198.00
2024-03-26T01:00:51.658Z,93196.00
2024-03-26T01:01:51.702Z,93194.00
2024-03-26T01:02:51.756Z,93199.00
2024-03-26T01:03:51.809Z,93200.00
2024-03-26T01:04:51.856Z,93203.00
2024-03-26T01:05:51.914Z,93203.00
2024-03-26T01:06:52.019Z,93199.00
2024-03-26T01:07:52.036Z,93195.00
2024-03-26T01:08:52.125Z,93191.00
2024-03-26T01:09:52.194Z,93191.00
2024-03-26T01:10:52.232Z,93190.00
2024-03-26T01:11:52.286Z,93191.00
2024-03-26T01:12:52.334Z,93192.00
2024-03-26T01:13:52.399Z,93190.00
2024-03-26T01:14:52.478Z,93191.00
2024-03-26T01:15:52.519Z,93191.00
2024-03-26T01:16:52.604Z,93189.00
2024-03-26T01:17:52.642Z,93188.00
2024-03-26T01:18:52.716Z,93186.00
2024-03-26T01:19:52.759Z,93189.00
2024-03-26T01:20:52.835Z,93192.00
2024-03-26T01:21:52.899Z,93193.00
2024-03-26T01:22:52.975Z,93194.00
2024-03-26T01:23:53.012Z,93196.00
2024-03-26T01:24:53.086Z,93195.00
2024-03-26T01:25:53.143Z,93197.00
2024-03-26T01:26:53.213Z,93195.00
2024-03-26T01:27:53.282Z,93195.00
2024-03-26T01:28:53.347Z,93191.00
2024-03-26T01:29:53.392Z,93191.00
2024-03-26T01:30:53.457Z,93191.00
2024-03-26T01:31:53.555Z,93193.00
2024-03-26T01:32:53.601Z,93189.00
2024-03-26T01:33:53.655Z,93188.00
2024-03-26T01:34:53.726Z,93187.00
2024-03-26T01:35:53.772Z,93188.00
2024-03-26T01:36:53.965Z,93192.00
2024-03-26T01:37:53.911Z,93193.00
2024-03-26T01:38:53.946Z,93190.00
2024-03-26T01:39:54.021Z,93188.00
2024-03-26T01:40:54.102Z,93186.00
2024-03-26T01:41:54.171Z,93182.00
2024-03-26T01:42:54.231Z,93178.00
2024-03-26T01:43:54.270Z,93179.00
2024-03-26T01:44:54.320Z,93179.00
2024-03-26T01:45:54.389Z,93181.00
2024-03-26T01:46:54.460Z,93183.00
2024-03-26T01:47:54.505Z,93183.00
2024-03-26T01:48:54.573Z,93178.00
2024-03-26T01:49:54.639Z,93181.00
2024-03-26T01:50:54.705Z,93180.00
2024-03-26T01:51:54.805Z,93180.00
2024-03-26T01:52:54.851Z,93184.00
2024-03-26T01:53:54.897Z,93181.00
2024-03-26T01:54:54.958Z,93182.00
2024-03-26T01:55:55.032Z,93178.00
2024-03-26T01:56:55.103Z,93174.00
2024-03-26T01:57:55.185Z,93172.00
2024-03-26T01:58:55.208Z,93170.00
2024-03-26T01:59:55.279Z,93166.00
2024-03-26T02:00:55.355Z,93163.00
2024-03-26T02:01:55.422Z,93166.00
2024-03-26T02:02:55.504Z,93164.00
2024-03-26T02:03:55.545Z,93163.00
2024-03-26T02:04:55.609Z,93167.00
2024-03-26T02:05:55.677Z,93166.00
2024-03-26T02:06:55.733Z,93167.00
2024-03-26T02:07:55.801Z,93165.00
2024-03-26T02:08:55.869Z,93164.00
2024-03-26T02:09:55.941Z,93165.00
2024-03-26T02:10:55.997Z,93166.00
2024-03-26T02:11:56.072Z,93165.00
2024-03-26T02:12:56.124Z,93167.00
2024-03-26T02:13:56.230Z,93169.00
2024-03-26T02:14:56.281Z,93171.00
2024-03-26T02:15:56.332Z,93173.00
2024-03-26T02:16:56.403Z,93171.00
2024-03-26T02:17:56.465Z,93169.00
2024-03-26T02:18:56.527Z,93168.00
2024-03-26T02:19:56.601Z,93165.00
2024-03-26T02:20:56.658Z,93163.00
2024-03-26T02:21:56.752Z,93160.00
2024-03-26T02:22:56.815Z,93160.00
2024-03-26T02:23:56.864Z,93161.00
2024-03-26T02:24:56.971Z,93161.00
2024-03-26T02:25:56.996Z,93161.00
2024-03-26T02:26:57.064Z,93161.00
2024-03-26T02:27:57.125Z,93163.00
2024-03-26T02:28:57.189Z,93162.00
2024-03-26T02:29:57.256Z,93159.00
2024-03-26T02:30:57.336Z,93161.00
2024-03-26T02:31:57.395Z,93159.00
2024-03-26T02:32:57.448Z,93157.00
2024-03-26T02:33:57.513Z,93156.00
2024-03-26T02:34:57.581Z,93157.00
2024-03-26T02:35:57.658Z,93154.00
2024-03-26T02:36:57.756Z,93154.00
2024-03-26T02:37:57.818Z,93154.00
2024-03-26T02:38:57.874Z,93153.00
2024-03-26T02:39:57.914Z,93151.00
2024-03-26T02:40:57.999Z,93149.00
2024-03-26T02:41:58.069Z,93151.00
2024-03-26T02:42:58.134Z,93149.00
2024-03-26T02:43:58.218Z,93148.00
2024-03-26T02:44:58.267Z,93146.00
2024-03-26T02:45:58.334Z,93145.00
2024-03-26T02:46:58.418Z,93142.00
2024-03-26T02:47:58.479Z,93141.00
2024-03-26T02:48:58.550Z,93141.00
2024-03-26T02:49:58.604Z,93141.00
2024-03-26T02:50:58.695Z,93140.00
2024-03-26T02:51:58.742Z,93139.00
2024-03-26T02:52:58.847Z,93140.00
2024-03-26T02:53:58.893Z,93138.00
2024-03-26T02:54:58.942Z,93137.00
2024-03-26T02:55:59.010Z,93132.00
2024-03-26T02:56:59.080Z,93132.00
2024-03-26T02:57:59.345Z,93126.00
2024-03-26T02:58:59.197Z,93126.00
2024-03-26T02:59:59.270Z,93128.00
2024-03-26T03:00:59.333Z,93129.00
2024-03-26T03:01:59.393Z,93127.00
2024-03-26T03:02:59.476Z,93124.00
2024-03-26T03:03:59.548Z,93120.00
2024-03-26T03:04:59.612Z,93116.00
2024-03-26T03:05:59.686Z,93116.00
2024-03-26T03:06:59.758Z,93113.00
2024-03-26T03:07:59.844Z,93112.00
2024-03-26T03:08:59.895Z,93110.00
2024-03-26T03:09:59.970Z,93109.00
2024-03-26T03:11:00.035Z,93105.00
2024-03-26T03:12:00.095Z,93107.00
2024-03-26T03:13:00.176Z,93107.00
2024-03-26T03:14:00.219Z,93108.00
2024-03-26T03:15:00.395Z,93107.00
2024-03-26T03:16:00.361Z,93107.00
2024-03-26T03:17:00.458Z,93108.00
2024-03-26T03:18:00.509Z,93106.00
2024-03-26T03:19:00.585Z,93106.00
2024-03-26T03:20:00.640Z,93104.00
2024-03-26T03:21:00.705Z,93103.00
2024-03-26T03:22:00.782Z,93104.00
2024-03-26T03:23:00.848Z,93100.00
2024-03-26T03:24:00.901Z,93096.00
2024-03-26T03:25:00.979Z,93095.00
2024-03-26T03:26:01.036Z,93093.00
2024-03-26T03:27:01.105Z,93091.00
2024-03-26T03:28:01.232Z,93090.00
2024-03-26T03:29:01.295Z,93089.00
2024-03-26T03:30:01.411Z,93087.00
2024-03-26T03:31:01.386Z,93087.00
2024-03-26T03:32:01.442Z,93084.00
2024-03-26T03:33:01.557Z,93082.00
2024-03-26T03:34:01.588Z,93081.00
2024-03-26T03:35:01.667Z,93076.00
2024-03-26T03:36:01.730Z,93076.00
2024-03-26T03:37:01.806Z,93078.00
2024-03-26T03:38:01.869Z,93076.00
2024-03-26T03:39:01.930Z,93076.00
2024-03-26T03:40:02.003Z,93073.00
2024-03-26T03:41:02.079Z,93071.00
2024-03-26T03:42:02.160Z,93068.00
2024-03-26T03:43:02.222Z,93068.00
2024-03-26T03:44:02.293Z,93069.00
2024-03-26T03:45:02.408Z,93067.00
2024-03-26T03:46:02.442Z,93065.00
2024-03-26T03:47:02.502Z,93062.00
2024-03-26T03:48:02.569Z,93061.00
2024-03-26T03:49:02.638Z,93058.00
2024-03-26T03:50:02.728Z,93059.00
2024-03-26T03:51:02.786Z,93059.00
2024-03-26T03:52:02.853Z,93057.00
2024-03-26T03:53:02.911Z,93055.00
2024-03-26T03:54:02.989Z,93055.00
2024-03-26T03:55:03.059Z,93053.00
2024-03-26T03:56:03.128Z,93053.00
2024-03-26T03:57:03.212Z,93052.00
2024-03-26T03:58:03.254Z,93051.00
2024-03-26T03:59:03.323Z,93052.00
2024-03-26T04:00:03.421Z,93047.00
2024-03-26T04:01:03.458Z,93047.00
2024-03-26T04:02:03.537Z,93049.00
2024-03-26T04:03:03.591Z,93048.00
2024-03-26T04:04:03.683Z,93048.00
2024-03-26T04:05:03.724Z,93047.00
2024-03-26T04:06:03.798Z,93048.00
2024-03-26T04:07:03.866Z,93048.00
2024-03-26T04:08:03.953Z,93046.00
2024-03-26T04:09:04.000Z,93045.00
2024-03-26T04:10:04.070Z,93046.00
2024-03-26T04:11:04.129Z,93047.00
2024-03-26T04:12:04.199Z,93049.00
2024-03-26T04:13:04.270Z,93051.00
2024-03-26T04:14:04.342Z,93053.00
2024-03-26T04:15:04.418Z,93053.00
2024-03-26T04:16:04.476Z,93052.00
2024-03-26T04:17:04.552Z,93053.00
2024-03-26T04:18:04.615Z,93053.00
2024-03-26T04:19:11.817Z,93053.00
2024-03-26T04:20:11.802Z,93054.00
2024-03-26T04:21:11.804Z,93049.00
2024-03-26T04:22:11.830Z,93050.00
2024-03-26T04:23:11.801Z,93046.00
2024-03-26T04:24:11.808Z,93045.00
2024-03-26T04:25:11.826Z,93045.00
2024-03-26T04:26:11.818Z,93045.00
2024-03-26T04:27:11.816Z,93047.00
2024-03-26T04:28:11.824Z,93047.00
2024-03-26T04:29:11.849Z,93045.00
2024-03-26T04:30:11.837Z,93045.00
2024-03-26T04:31:19.006Z,93045.00
2024-03-26T04:32:19.021Z,93046.00
2024-03-26T04:33:19.009Z,93044.00
2024-03-26T04:34:19.008Z,93044.00
2024-03-26T04:35:19.013Z,93044.00
2024-03-26T04:36:19.017Z,93045.00
2024-03-26T04:37:19.012Z,93045.00
2024-03-26T04:38:19.028Z,93042.00
2024-03-26T04:39:19.052Z,93041.00
2024-03-26T04:40:19.024Z,93040.00
2024-03-26T04:41:19.042Z,93040.00
2024-03-26T04:42:19.060Z,93040.00
2024-03-26T04:43:19.031Z,93040.00
2024-03-26T04:44:19.048Z,93040.00
2024-03-26T04:45:19.040Z,93040.00
2024-03-26T04:46:19.035Z,93038.00
2024-03-26T04:47:19.035Z,93035.00
2024-03-26T04:48:19.021Z,93034.00
2024-03-26T04:49:19.087Z,93034.00
2024-03-26T04:50:19.053Z,93032.00
2024-03-26T04:51:19.071Z,93032.00
2024-03-26T04:52:19.050Z,93033.00
2024-03-26T04:53:19.062Z,93033.00
2024-03-26T04:54:19.051Z,93031.00
2024-03-26T04:55:19.075Z,93030.00
2024-03-26T04:56:19.115Z,93032.00
2024-03-26T04:57:19.127Z,93034.00
2024-03-26T04:58:19.228Z,93035.00
2024-03-26T04:59:19.256Z,93034.00
2024-03-26T05:00:19.322Z,93035.00
2024-03-26T05:01:19.365Z,93033.00
2024-03-26T05:02:19.420Z,93033.00
2024-03-26T05:03:19.489Z,93030.00
2024-03-26T05:04:19.556Z,93030.00
2024-03-26T05:05:19.589Z,93030.00
2024-03-26T05:06:19.698Z,93031.00
2024-03-26T05:07:19.714Z,93033.00
2024-03-26T05:08:19.785Z,93032.00
2024-03-26T05:09:19.808Z,93034.00
2024-03-26T05:10:19.897Z,93034.00
2024-03-26T05:11:20.158Z,93031.00
2024-03-26T05:12:19.973Z,93029.00
2024-03-26T05:13:20.030Z,93029.00
2024-03-26T05:14:20.099Z,93027.00
2024-03-26T05:15:20.133Z,93025.00
2024-03-26T05:16:20.196Z,93023.00
2024-03-26T05:17:20.255Z,93024.00
2024-03-26T05:18:20.306Z,93025.00
2024-03-26T05:19:20.357Z,93025.00
2024-03-26T05:20:20.418Z,93024.00
2024-03-26T05:21:20.471Z,93025.00
2024-03-26T05:22:20.521Z,93024.00
2024-03-26T05:23:20.578Z,93026.00
2024-03-26T05:24:20.650Z,93024.00
2024-03-26T05:25:20.715Z,93025.00
2024-03-26T05:26:20.759Z,93022.00
2024-03-26T05:27:20.855Z,93022.00
2024-03-26T05:28:20.887Z,93017.00
2024-03-26T05:29:20.951Z,93010.00
2024-03-26T05:30:21.008Z,93008.00
2024-03-26T05:31:21.099Z,93007.00
2024-03-26T05:32:21.119Z,93007.00
2024-03-26T05:33:21.188Z,93007.00
2024-03-26T05:34:24.089Z,93007.00
2024-03-26T05:35:21.227Z,93006.00
2024-03-26T05:36:21.254Z,93004.00
2024-03-26T05:37:21.245Z,93003.00
2024-03-26T05:38:21.256Z,93002.00
2024-03-26T05:39:21.234Z,93001.00
2024-03-26T05:40:21.255Z,92999.00
2024-03-26T05:41:21.264Z,93003.00
2024-03-26T05:42:21.269Z,93003.00
2024-03-26T05:43:21.275Z,93004.00
2024-03-26T05:44:21.281Z,93006.00
2024-03-26T05:45:21.255Z,93005.00
2024-03-26T05:46:21.260Z,93008.00
2024-03-26T05:47:21.252Z,93006.00
2024-03-26T05:48:21.258Z,93005.00
2024-03-26T05:49:21.265Z,93005.00
2024-03-26T05:50:21.269Z,93004.00
2024-03-26T05:51:21.246Z,93004.00
2024-03-26T05:52:21.281Z,93004.00
2024-03-26T05:53:21.272Z,93004.00
2024-03-26T05:54:21.267Z,93001.00
2024-03-26T05:55:21.274Z,92999.00
2024-03-26T05:56:21.262Z,92998.00
2024-03-26T05:57:21.268Z,92998.00
2024-03-26T05:58:21.270Z,93001.00
2024-03-26T05:59:21.280Z,93000.00
2024-03-26T06:00:21.283Z,93004.00
2024-03-26T06:01:21.347Z,93007.00
2024-03-26T06:02:21.410Z,93009.00
2024-03-26T06:03:21.460Z,93009.00
2024-03-26T06:04:21.537Z,93007.00
2024-03-26T06:05:21.584Z,93002.00
2024-03-26T06:06:21.638Z,92999.00
2024-03-26T06:07:21.694Z,93000.00
2024-03-26T06:08:21.740Z,93004.00
2024-03-26T06:09:21.809Z,93006.00
2024-03-26T06:10:21.880Z,93009.00
2024-03-26T06:11:21.913Z,93010.00
2024-03-26T06:12:21.976Z,93007.00
2024-03-26T06:13:22.030Z,93006.00
2024-03-26T06:14:22.085Z,93006.00
2024-03-26T06:15:22.132Z,93005.00
2024-03-26T06:16:22.198Z,93005.00
2024-03-26T06:17:22.256Z,93007.00
2024-03-26T06:18:24.403Z,93005.00
2024-03-26T06:19:22.299Z,93003.00
2024-03-26T06:20:22.296Z,93000.00
2024-03-26T06:21:22.295Z,92998.00
2024-03-26T06:22:22.303Z,92997.00
2024-03-26T06:23:22.300Z,92998.00
2024-03-26T06:24:22.304Z,92996.00
2024-03-26T06:25:22.300Z,92996.00
2024-03-26T06:26:22.313Z,92992.00
2024-03-26T06:27:22.348Z,92994.00
2024-03-26T06:28:22.310Z,92994.00
2024-03-26T06:29:22.332Z,92995.00
2024-03-26T06:30:22.321Z,92998.00
2024-03-26T06:31:22.321Z,93000.00
2024-03-26T06:32:22.365Z,92997.00
2024-03-26T06:33:25.257Z,92998.00
2024-03-26T06:34:22.331Z,92997.00
2024-03-26T06:35:22.328Z,92994.00
2024-03-26T06:36:22.386Z,92995.00
2024-03-26T06:37:22.351Z,92995.00
2024-03-26T06:38:22.333Z,92995.00
2024-03-26T06:39:22.337Z,92999.00
2024-03-26T06:40:22.362Z,92999.00
2024-03-26T06:41:22.341Z,93000.00
2024-03-26T06:42:22.371Z,93002.00
2024-03-26T06:43:22.347Z,93003.00
2024-03-26T06:44:22.343Z,93003.00
2024-03-26T06:45:22.342Z,93002.00
2024-03-26T06:46:24.249Z,93003.00
2024-03-26T06:47:22.351Z,93001.00
2024-03-26T06:48:22.355Z,93001.00
2024-03-26T06:49:22.377Z,92998.00
2024-03-26T06:50:22.349Z,92995.00
2024-03-26T06:51:22.352Z,92992.00
2024-03-26T06:52:22.374Z,92990.00
2024-03-26T06:53:22.414Z,92988.00
2024-03-26T06:54:22.377Z,92988.00
2024-03-26T06:55:22.384Z,92988.00
2024-03-26T06:56:22.387Z,92990.00
2024-03-26T06:57:22.370Z,92990.00
2024-03-26T06:58:22.387Z,92986.00
2024-03-26T06:59:22.369Z,92985.00
2024-03-26T07:00:22.387Z,92985.00
2024-03-26T07:01:22.386Z,92982.00
2024-03-26T07:02:22.405Z,92982.00
2024-03-26T07:03:22.434Z,92976.00
2024-03-26T07:04:22.432Z,92973.00
2024-03-26T07:05:22.471Z,92970.00
2024-03-26T07:06:22.507Z,92967.00
2024-03-26T07:07:22.542Z,92968.00
2024-03-26T07:08:22.582Z,92968.00
2024-03-26T07:09:22.610Z,92969.00
2024-03-26T07:10:22.664Z,92970.00
2024-03-26T07:11:22.687Z,92972.00
2024-03-26T07:12:22.733Z,92971.00
2024-03-26T07:13:22.752Z,92969.00
2024-03-26T07:14:22.784Z,92967.00
2024-03-26T07:15:22.829Z,92963.00
2024-03-26T07:16:22.865Z,92964.00
2024-03-26T07:17:22.892Z,92962.00
2024-03-26T07:18:22.916Z,92962.00
2024-03-26T07:19:22.944Z,92964.00
2024-03-26T07:20:23.023Z,92965.00
2024-03-26T07:21:23.017Z,92963.00
2024-03-26T07:22:23.037Z,92962.00
2024-03-26T07:23:23.058Z,92960.00
2024-03-26T07:24:23.122Z,92958.00
2024-03-26T07:25:23.144Z,92960.00
2024-03-26T07:26:23.259Z,92956.00
2024-03-26T07:27:23.177Z,92959.00
2024-03-26T07:28:23.197Z,92962.00
2024-03-26T07:29:23.229Z,92962.00
2024-03-26T07:30:23.264Z,92959.00
2024-03-26T07:31:23.299Z,92959.00
2024-03-26T07:32:23.393Z,92958.00
2024-03-26T07:33:23.340Z,92958.00
2024-03-26T07:34:23.366Z,92954.00
2024-03-26T07:35:23.383Z,92952.00
2024-03-26T07:36:23.397Z,92947.00
2024-03-26T07:37:23.723Z,92943.00
2024-03-26T07:38:23.451Z,92939.00
2024-03-26T07:39:23.462Z,92946.00
2024-03-26T07:40:23.479Z,92947.00
2024-03-26T07:41:23.549Z,92949.00
2024-03-26T07:42:23.618Z,92945.00
2024-03-26T07:43:24.117Z,92942.00
2024-03-26T07:44:23.548Z,92943.00
2024-03-26T07:45:23.568Z,92943.00
2024-03-26T07:46:23.586Z,92946.00
2024-03-26T07:47:23.629Z,92949.00
2024-03-26T07:48:25.665Z,92948.00
2024-03-26T07:49:23.644Z,92947.00
2024-03-26T07:50:23.614Z,92941.00
2024-03-26T07:51:25.110Z,92937.00
2024-03-26T07:52:23.755Z,92939.00
2024-03-26T07:53:23.802Z,92937.00
2024-03-26T07:54:23.869Z,92938.00
2024-03-26T07:55:23.952Z,92937.00
2024-03-26T07:56:24.013Z,92937.00
2024-03-26T07:57:24.067Z,92937.00
2024-03-26T07:58:24.010Z,92934.00
2024-03-26T07:59:24.078Z,92931.00
2024-03-26T08:00:24.006Z,92929.00
2024-03-26T08:01:24.037Z,92929.00
2024-03-26T08:02:24.090Z,92930.00
2024-03-26T08:03:24.104Z,92933.00
2024-03-26T08:04:24.038Z,92933.00
2024-03-26T08:05:24.044Z,92934.00
2024-03-26T08:06:24.059Z,92934.00
2024-03-26T08:07:24.060Z,92930.00
2024-03-26T08:08:24.082Z,92930.00
2024-03-26T08:09:24.063Z,92930.00
2024-03-26T08:10:24.050Z,92931.00
2024-03-26T08:11:24.105Z,92932.00
2024-03-26T08:12:24.068Z,92931.00
2024-03-26T08:13:24.706Z,92932.00
2024-03-26T08:14:24.121Z,92932.00
2024-03-26T08:15:24.162Z,92931.00
2024-03-26T08:16:24.345Z,92928.00
2024-03-26T08:17:24.243Z,92929.00
2024-03-26T08:18:24.307Z,92926.00
2024-03-26T08:19:24.343Z,92922.00
2024-03-26T08:20:24.412Z,92918.00
2024-03-26T08:21:24.468Z,92917.00
2024-03-26T08:22:24.556Z,92917.00
2024-03-26T08:23:24.646Z,92917.00
2024-03-26T08:24:24.678Z,92915.00
2024-03-26T08:25:24.780Z,92914.00
2024-03-26T08:26:24.822Z,92915.00
2024-03-26T08:27:24.926Z,92918.00
2024-03-26T08:28:24.988Z,92919.00
2024-03-26T08:29:25.033Z,92919.00
2024-03-26T08:30:25.138Z,92921.00
2024-03-26T08:31:25.131Z,92925.00
2024-03-26T08:32:25.199Z,92921.00
2024-03-26T08:33:25.248Z,92920.00
2024-03-26T08:34:25.317Z,92920.00
2024-03-26T08:35:25.382Z,92919.00
2024-03-26T08:36:25.452Z,92919.00
2024-03-26T08:37:25.518Z,92922.00
2024-03-26T08:38:25.553Z,92921.00
2024-03-26T08:39:25.603Z,92920.00
2024-03-26T08:40:25.677Z,92919.00
2024-03-26T08:41:25.727Z,92914.00
2024-03-26T08:42:25.798Z,92912.00
2024-03-26T08:43:25.864Z,92911.00
2024-03-26T08:44:25.934Z,92911.00
2024-03-26T08:45:25.984Z,92913.00
2024-03-26T08:46:26.073Z,92914.00
2024-03-26T08:47:26.161Z,92910.00
2024-03-26T08:48:26.224Z,92910.00
2024-03-26T08:49:26.259Z,92909.00
2024-03-26T08:50:26.324Z,92909.00
2024-03-26T08:51:26.392Z,92904.00
2024-03-26T08:52:26.435Z,92900.00
2024-03-26T08:53:26.505Z,92894.00
2024-03-26T08:54:26.568Z,92889.00
2024-03-26T08:55:26.626Z,92885.00
2024-03-26T08:56:26.685Z,92886.00
2024-03-26T08:57:26.785Z,92884.00
2024-03-26T08:58:26.806Z,92885.00
2024-03-26T08:59:26.844Z,92884.00
2024-03-26T09:00:26.915Z,92880.00
2024-03-26T09:01:26.973Z,92877.00
2024-03-26T09:02:27.033Z,92878.00
2024-03-26T09:03:27.085Z,92875.00
2024-03-26T09:04:27.254Z,92875.00
2024-03-26T09:05:27.195Z,92879.00
2024-03-26T09:06:27.268Z,92881.00
2024-03-26T09:07:27.309Z,92879.00
2024-03-26T09:08:27.368Z,92878.00
2024-03-26T09:09:27.403Z,92877.00
2024-03-26T09:10:27.491Z,92874.00
2024-03-26T09:11:27.515Z,92873.00
2024-03-26T09:12:27.565Z,92865.00
2024-03-26T09:13:27.632Z,92865.00
2024-03-26T09:14:27.666Z,92866.00
2024-03-26T09:15:27.708Z,92868.00
2024-03-26T09:16:27.765Z,92869.00
2024-03-26T09:17:27.812Z,92869.00
2024-03-26T09:18:27.850Z,92866.00
2024-03-26T09:19:27.879Z,92867.00
2024-03-26T09:20:27.944Z,92865.00
2024-03-26T09:21:27.966Z,92863.00
2024-03-26T09:22:28.020Z,92860.00
2024-03-26T09:23:28.042Z,92858.00
2024-03-26T09:24:33.521Z,92857.00
2024-03-26T09:25:29.085Z,92854.00
2024-03-26T09:26:28.094Z,92853.00
2024-03-26T09:27:28.097Z,92856.00
2024-03-26T09:28:28.090Z,92851.00
2024-03-26T09:29:28.097Z,92850.00
2024-03-26T09:30:28.101Z,92845.00
2024-03-26T09:31:28.093Z,92843.00
2024-03-26T09:32:28.111Z,92842.00
2024-03-26T09:33:28.091Z,92838.00
2024-03-26T09:34:28.110Z,92836.00
2024-03-26T09:35:28.113Z,92832.00
2024-03-26T09:36:28.098Z,92828.00
2024-03-26T09:37:29.406Z,92826.00
2024-03-26T09:38:39.681Z,92823.00
2024-03-26T09:39:29.679Z,92821.00
2024-03-26T09:40:28.132Z,92821.00
2024-03-26T09:41:28.151Z,92823.00
2024-03-26T09:42:28.149Z,92822.00
2024-03-26T09:43:28.879Z,92821.00
2024-03-26T09:44:28.140Z,92819.00
2024-03-26T09:45:28.126Z,92821.00
2024-03-26T09:46:28.129Z,92823.00
2024-03-26T09:47:28.159Z,92826.00
2024-03-26T09:48:28.190Z,92827.00
2024-03-26T09:49:28.135Z,92824.00
2024-03-26T09:50:28.150Z,92818.00
2024-03-26T09:51:28.158Z,92814.00
2024-03-26T09:52:28.165Z,92808.00
2024-03-26T09:53:28.202Z,92803.00
2024-03-26T09:54:29.165Z,92804.00
2024-03-26T09:55:28.255Z,92804.00
2024-03-26T09:56:28.261Z,92807.00
2024-03-26T09:57:28.280Z,92806.00
2024-03-26T09:58:28.303Z,92800.00
2024-03-26T09:59:28.314Z,92796.00
2024-03-26T10:00:28.381Z,92794.00
2024-03-26T10:01:28.359Z,92791.00
2024-03-26T10:02:28.389Z,92788.00
2024-03-26T10:03:28.444Z,92786.00
2024-03-26T10:04:28.443Z,92784.00
2024-03-26T10:05:28.448Z,92784.00
2024-03-26T10:06:28.497Z,92780.00
2024-03-26T10:07:28.507Z,92779.00
2024-03-26T10:08:28.527Z,92775.00
2024-03-26T10:09:28.541Z,92771.00
2024-03-26T10:10:28.572Z,92770.00
2024-03-26T10:11:28.587Z,92768.00
2024-03-26T10:12:28.591Z,92766.00
2024-03-26T10:13:28.613Z,92770.00
2024-03-26T10:14:28.632Z,92770.00
2024-03-26T10:15:28.648Z,92770.00
2024-03-26T10:16:28.683Z,92767.00
2024-03-26T10:17:29.490Z,92762.00
2024-03-26T10:18:28.723Z,92757.00
2024-03-26T10:19:28.701Z,92754.00
2024-03-26T10:20:28.722Z,92756.00
2024-03-26T10:21:28.723Z,92753.00
2024-03-26T10:22:28.742Z,92753.00
2024-03-26T10:23:28.752Z,92744.00
2024-03-26T10:24:28.756Z,92743.00
2024-03-26T10:25:28.790Z,92739.00
2024-03-26T10:26:28.796Z,92736.00
2024-03-26T10:27:28.788Z,92736.00
2024-03-26T10:28:28.804Z,92739.00
2024-03-26T10:29:28.813Z,92742.00
2024-03-26T10:30:28.837Z,92745.00
2024-03-26T10:31:28.838Z,92747.00
2024-03-26T10:32:28.884Z,92747.00
2024-03-26T10:33:29.271Z,92739.00
2024-03-26T10:34:28.872Z,92740.00
2024-03-26T10:35:31.329Z,92738.00
2024-03-26T10:36:29.022Z,92732.00
2024-03-26T10:37:29.053Z,92729.00
2024-03-26T10:38:29.044Z,92730.00
2024-03-26T10:39:29.053Z,92727.00
2024-03-26T10:40:29.070Z,92723.00
2024-03-26T10:41:29.094Z,92723.00
2024-03-26T10:42:29.064Z,92721.00
2024-03-26T10:43:29.072Z,92716.00
2024-03-26T10:44:29.090Z,92713.00
2024-03-26T10:45:41.223Z,92709.00
2024-03-26T10:46:30.098Z,92703.00
2024-03-26T10:47:29.117Z,92700.00
2024-03-26T10:48:29.105Z,92704.00
2024-03-26T10:49:29.084Z,92701.00
2024-03-26T10:50:29.106Z,92696.00
2024-03-26T10:51:29.085Z,92697.00
2024-03-26T10:52:29.091Z,92691.00
2024-03-26T10:53:29.108Z,92690.00
2024-03-26T10:54:29.100Z,92686.00
2024-03-26T10:55:29.111Z,92681.00
2024-03-26T10:56:29.656Z,92687.00
2024-03-26T10:57:29.097Z,92680.00
2024-03-26T10:58:29.120Z,92676.00
2024-03-26T10:59:29.121Z,92673.00
2024-03-26T11:00:29.116Z,92673.00
2024-03-26T11:01:29.107Z,92669.00
2024-03-26T11:02:29.126Z,92673.00
2024-03-26T11:03:29.098Z,92674.00
2024-03-26T11:04:29.123Z,92674.00
2024-03-26T11:05:29.115Z,92666.00
2024-03-26T11:06:29.197Z,92668.00
2024-03-26T11:07:29.116Z,92660.00
2024-03-26T11:08:29.147Z,92655.00
2024-03-26T11:09:29.103Z,92657.00
2024-03-26T11:10:29.144Z,92654.00
2024-03-26T11:11:29.197Z,92654.00
2024-03-26T11:12:29.270Z,92653.00
2024-03-26T11:13:29.274Z,92651.00
2024-03-26T11:14:29.338Z,92645.00
2024-03-26T11:15:29.375Z,92640.00
2024-03-26T11:16:29.416Z,92635.00
2024-03-26T11:17:29.470Z,92633.00
2024-03-26T11:18:29.522Z,92636.00
2024-03-26T11:19:29.562Z,92628.00
2024-03-26T11:20:29.619Z,92626.00
2024-03-26T11:21:29.720Z,92622.00
2024-03-26T11:22:29.699Z,92619.00
2024-03-26T11:23:29.748Z,92619.00
2024-03-26T11:24:29.832Z,92612.00
2024-03-26T11:25:29.854Z,92616.00
2024-03-26T11:26:29.895Z,92613.00
2024-03-26T11:27:29.995Z,92612.00
2024-03-26T11:28:30.018Z,92610.00
2024-03-26T11:29:30.081Z,92610.00
2024-03-26T11:30:30.094Z,92608.00
2024-03-26T11:31:30.129Z,92604.00
2024-03-26T11:32:30.206Z,92605.00
2024-03-26T11:33:30.218Z,92600.00
2024-03-26T11:34:30.252Z,92599.00
2024-03-26T11:35:30.313Z,92600.00
2024-03-26T11:36:30.329Z,92606.00
2024-03-26T11:37:30.371Z,92608.00
2024-03-26T11:38:30.345Z,92610.00
2024-03-26T11:39:30.374Z,92606.00
2024-03-26T11:40:30.403Z,92607.00
2024-03-26T11:41:30.418Z,92602.00
2024-03-26T11:42:30.486Z,92596.00
2024-03-26T11:43:30.453Z,92595.00
2024-03-26T11:44:30.443Z,92591.00
2024-03-26T11:45:30.462Z,92589.00